Time;durP1;ratioP1;P1;durP2;ratioP2;P2;SDS_P1;SDS_P2;PMS_P1;PMS_P2;Temp;Humidity;BMP_temperature;BMP_pressure;BME280_temperature;BME280_humidity;BME280_pressure;Samples;Min_cycle;Max_cycle;Signal;HPM_P1;HPM_P2
2023/01/02 00:00:27;;;;;;;0.90;0.90;;;18.20;69.10;;;;;;5087349;28;43419;-70
2023/01/02 00:02:55;;;;;;;0.90;0.90;;;18.10;69.30;;;;;;5087449;28;43495;-70
2023/01/02 00:05:23;;;;;;;0.90;0.90;;;18.20;69.20;;;;;;5070174;28;45759;-72
2023/01/02 00:07:53;;;;;;;0.90;0.90;;;18.30;68.80;;;;;;5089114;28;44062;-71
2023/01/02 00:10:21;;;;;;;1.23;0.90;;;18.40;68.60;;;;;;5088548;28;43395;-71
2023/01/02 00:12:49;;;;;;;0.80;0.80;;;18.40;68.30;;;;;;5089192;28;43561;-71
2023/01/02 00:15:17;;;;;;;1.00;1.00;;;18.40;68.40;;;;;;5085169;28;43595;-70
2023/01/02 00:17:45;;;;;;;0.90;0.90;;;18.40;68.70;;;;;;5088250;28;43442;-71
2023/01/02 00:20:13;;;;;;;0.80;0.80;;;18.40;68.50;;;;;;5088626;28;43433;-71
2023/01/02 00:22:41;;;;;;;0.90;0.90;;;18.40;68.50;;;;;;5084775;28;43485;-71
2023/01/02 00:25:10;;;;;;;0.80;0.80;;;18.30;68.50;;;;;;5088455;28;43941;-71
2023/01/02 00:27:38;;;;;;;0.90;0.90;;;18.30;68.60;;;;;;5088023;28;43459;-71
2023/01/02 00:30:07;;;;;;;1.10;1.00;;;18.30;68.80;;;;;;5085888;28;43446;-69
2023/01/02 00:32:35;;;;;;;0.97;0.97;;;18.20;68.90;;;;;;5089034;28;43367;-70
2023/01/02 00:35:04;;;;;;;0.97;0.97;;;18.30;68.90;;;;;;5088160;28;43678;-72
2023/01/02 00:37:32;;;;;;;0.90;0.90;;;18.30;68.80;;;;;;5086829;28;43426;-71
2023/01/02 00:40:00;;;;;;;0.73;0.73;;;18.30;68.80;;;;;;5084744;28;43441;-70
2023/01/02 00:42:29;;;;;;;1.07;1.07;;;18.20;68.80;;;;;;5088551;28;43403;-71
2023/01/02 00:44:57;;;;;;;0.90;0.90;;;18.20;69.00;;;;;;5087201;28;43903;-70
2023/01/02 00:47:25;;;;;;;1.00;1.00;;;18.20;69.30;;;;;;5088364;28;43551;-70
2023/01/02 00:49:53;;;;;;;1.00;1.00;;;18.30;69.10;;;;;;5088390;28;43451;-70
2023/01/02 00:52:20;;;;;;;0.90;0.90;;;18.40;68.60;;;;;;5088429;28;43437;-71
2023/01/02 00:54:48;;;;;;;0.90;0.90;;;18.50;68.30;;;;;;5087857;28;43902;-73
2023/01/02 00:57:16;;;;;;;0.90;0.90;;;18.50;68.20;;;;;;5068464;28;45020;-70
2023/01/02 00:59:45;;;;;;;1.23;0.80;;;18.40;68.30;;;;;;5088201;28;43869;-70
2023/01/02 01:02:13;;;;;;;1.00;1.00;;;18.40;68.40;;;;;;5069673;28;43538;-70
2023/01/02 01:04:41;;;;;;;0.80;0.80;;;18.40;68.40;;;;;;5086852;27;43612;-71
2023/01/02 01:07:09;;;;;;;0.93;0.93;;;18.40;68.50;;;;;;5089686;27;43648;-72
2023/01/02 01:09:37;;;;;;;0.70;0.70;;;18.30;68.50;;;;;;5088090;28;43445;-70
2023/01/02 01:12:05;;;;;;;0.80;0.80;;;18.30;68.70;;;;;;5087700;28;43534;-73
2023/01/02 01:14:33;;;;;;;0.90;0.90;;;18.30;69.00;;;;;;5086603;28;43925;-71
2023/01/02 01:17:02;;;;;;;0.90;0.90;;;18.30;69.00;;;;;;5086805;28;43485;-69
2023/01/02 01:19:30;;;;;;;0.80;0.80;;;18.30;68.80;;;;;;5088018;28;43402;-70
2023/01/02 01:21:58;;;;;;;0.70;0.70;;;18.30;68.80;;;;;;5088148;28;43468;-71
2023/01/02 01:24:26;;;;;;;0.90;0.90;;;18.30;68.90;;;;;;5087672;28;43863;-71
2023/01/02 01:26:54;;;;;;;0.90;0.90;;;18.20;68.90;;;;;;5080707;28;43477;-70
2023/01/02 01:29:22;;;;;;;0.80;0.80;;;18.20;69.10;;;;;;5087785;28;43530;-70
2023/01/02 01:31:50;;;;;;;0.80;0.80;;;18.20;69.30;;;;;;5087893;28;43518;-70
2023/01/02 01:34:20;;;;;;;0.90;0.90;;;18.30;69.00;;;;;;5087060;28;43962;-69
2023/01/02 01:36:48;;;;;;;0.87;0.87;;;18.40;68.70;;;;;;5068818;28;43372;-70
2023/01/02 01:39:16;;;;;;;0.80;0.80;;;18.40;68.60;;;;;;5082110;28;43423;-70
2023/01/02 01:41:43;;;;;;;0.97;0.97;;;18.40;68.60;;;;;;5087101;28;43451;-70
2023/01/02 01:44:42;;;;;;;0.70;0.70;;;18.30;68.50;;;;;;5087375;28;43962;-70
2023/01/02 01:47:17;;;;;;;0.90;0.90;;;18.30;68.80;;;;;;5079692;28;43568;-70
2023/01/02 01:49:47;;;;;;;0.90;0.90;;;18.30;68.60;;;;;;5069311;28;43426;-71
2023/01/02 01:52:15;;;;;;;0.80;0.80;;;18.30;68.60;;;;;;5087576;28;43512;-70
2023/01/02 01:54:45;;;;;;;0.90;0.90;;;18.30;68.70;;;;;;5081654;28;43845;-70
2023/01/02 01:57:14;;;;;;;0.90;0.90;;;18.30;68.80;;;;;;5087119;28;43519;-70
2023/01/02 01:59:42;;;;;;;0.90;0.90;;;18.20;69.00;;;;;;5087012;28;43427;-72
2023/01/02 02:02:10;;;;;;;1.00;1.00;;;18.20;69.00;;;;;;5087422;28;44068;-70
2023/01/02 02:04:38;;;;;;;1.00;1.00;;;18.20;68.80;;;;;;5068491;28;46070;-70
2023/01/02 02:07:07;;;;;;;0.90;0.90;;;18.20;68.70;;;;;;5084000;28;43400;-71
2023/01/02 02:09:37;;;;;;;0.80;0.80;;;18.20;68.80;;;;;;5085228;28;43947;-71
2023/01/02 02:12:06;;;;;;;0.80;0.80;;;18.20;68.90;;;;;;5087701;28;43415;-70
2023/01/02 02:14:34;;;;;;;0.83;0.83;;;18.20;69.20;;;;;;5086630;28;43889;-72
2023/01/02 02:17:13;;;;;;;0.80;0.80;;;18.20;69.20;;;;;;5085345;27;43547;-70
2023/01/02 02:19:57;;;;;;;0.93;0.93;;;18.30;68.80;;;;;;5080134;28;43482;-72
2023/01/02 02:22:52;;;;;;;0.80;0.80;;;18.40;68.40;;;;;;5085321;28;43433;-70
2023/01/02 02:25:42;;;;;;;0.97;0.90;;;18.50;68.20;;;;;;5085350;27;44019;-70
2023/01/02 02:28:38;;;;;;;0.90;0.90;;;18.40;68.30;;;;;;5053801;28;44698;-71
2023/01/02 02:31:08;;;;;;;1.00;1.00;;;18.40;68.60;;;;;;5086467;28;43996;-71
2023/01/02 02:33:39;;;;;;;0.70;0.70;;;18.40;68.40;;;;;;5086998;28;43974;-71
2023/01/02 02:36:11;;;;;;;0.90;0.90;;;18.40;68.40;;;;;;5082727;28;43849;-71
2023/01/02 02:38:47;;;;;;;0.90;0.90;;;18.30;68.40;;;;;;5080265;28;43493;-71
2023/01/02 02:41:21;;;;;;;0.73;0.73;;;18.30;68.60;;;;;;5081799;28;43490;-71
2023/01/02 02:43:51;;;;;;;0.90;0.90;;;18.30;68.90;;;;;;5068084;28;43554;-70
2023/01/02 02:46:23;;;;;;;0.90;0.90;;;18.30;68.90;;;;;;5086129;28;43966;-71
2023/01/02 02:48:55;;;;;;;0.80;0.80;;;18.30;68.80;;;;;;5086422;28;43376;-71
2023/01/02 02:51:27;;;;;;;0.90;0.90;;;18.30;68.80;;;;;;5084264;28;43405;-71
2023/01/02 02:53:57;;;;;;;0.80;0.80;;;18.30;68.80;;;;;;5084923;28;43467;-71
2023/01/02 02:56:25;;;;;;;0.70;0.70;;;18.20;68.90;;;;;;5086185;28;43956;-70
2023/01/02 02:58:53;;;;;;;0.60;0.60;;;18.20;69.00;;;;;;5086231;28;43571;-71
2023/01/02 03:01:24;;;;;;;0.90;0.90;;;18.20;69.10;;;;;;5086407;28;43669;-70
2023/01/02 03:03:57;;;;;;;0.80;0.80;;;18.10;69.20;;;;;;5084858;28;43395;-70
2023/01/02 03:06:38;;;;;;;0.90;0.90;;;18.10;69.30;;;;;;5086269;28;43628;-71
2023/01/02 03:09:10;;;;;;;0.80;0.80;;;18.10;69.30;;;;;;5080394;28;43460;-73
2023/01/02 03:11:43;;;;;;;1.23;0.90;;;18.10;69.50;;;;;;5086029;28;43432;-71
2023/01/02 03:14:14;;;;;;;1.10;1.10;;;18.10;69.50;;;;;;5086497;28;43372;-70
2023/01/02 03:16:43;;;;;;;0.80;0.80;;;18.20;69.20;;;;;;5085526;28;43904;-71
2023/01/02 03:19:13;;;;;;;1.00;1.00;;;18.40;68.80;;;;;;5085261;28;43481;-71
2023/01/02 03:21:43;;;;;;;0.90;0.90;;;18.50;68.40;;;;;;5086199;27;44015;-71
2023/01/02 03:24:12;;;;;;;0.80;0.80;;;18.70;68.00;;;;;;5070221;28;43537;-71
2023/01/02 03:26:42;;;;;;;1.00;1.00;;;18.80;67.50;;;;;;5065776;27;45981;-71
2023/01/02 03:29:15;;;;;;;1.50;0.90;;;19.00;66.90;;;;;;5063774;28;44699;-72
2023/01/02 03:31:46;;;;;;;0.93;0.93;;;19.10;66.40;;;;;;5089259;28;43423;-70
2023/01/02 03:34:15;;;;;;;0.83;0.83;;;19.30;66.10;;;;;;5089839;28;43506;-71
2023/01/02 03:36:43;;;;;;;1.00;1.00;;;19.40;65.70;;;;;;5088773;28;43606;-71
2023/01/02 03:39:12;;;;;;;0.80;0.80;;;19.50;65.30;;;;;;5088974;28;43901;-71
2023/01/02 03:41:42;;;;;;;1.07;1.07;;;19.50;65.00;;;;;;5089257;28;43502;-72
2023/01/02 03:44:10;;;;;;;1.00;1.00;;;19.50;64.90;;;;;;5089715;28;43360;-70
2023/01/02 03:46:40;;;;;;;0.83;0.83;;;19.40;65.10;;;;;;5086213;28;43599;-70
2023/01/02 03:49:12;;;;;;;1.03;0.90;;;19.30;65.60;;;;;;5070428;28;44680;-71
2023/01/02 03:51:40;;;;;;;0.80;0.80;;;19.10;66.20;;;;;;5089613;28;43429;-70
2023/01/02 03:54:08;;;;;;;0.77;0.77;;;19.00;66.60;;;;;;5089040;28;43418;-71
2023/01/02 03:56:41;;;;;;;0.70;0.70;;;18.90;66.70;;;;;;5089046;28;44026;-70
2023/01/02 03:59:11;;;;;;;0.90;0.90;;;18.90;67.20;;;;;;5082811;28;43382;-70
2023/01/02 04:01:40;;;;;;;0.83;0.83;;;18.80;67.30;;;;;;5082735;28;43504;-71
2023/01/02 04:04:12;;;;;;;1.20;1.20;;;18.70;67.50;;;;;;5071204;28;43468;-72
2023/01/02 04:06:42;;;;;;;0.90;0.90;;;18.60;68.00;;;;;;5088856;28;44014;-70
2023/01/02 04:09:11;;;;;;;0.80;0.80;;;18.60;68.10;;;;;;5088819;28;43490;-72
2023/01/02 04:11:40;;;;;;;0.87;0.87;;;18.70;67.90;;;;;;5088945;28;44541;-72
2023/01/02 04:14:12;;;;;;;0.77;0.77;;;18.70;67.50;;;;;;5083617;28;44159;-72
2023/01/02 04:16:40;;;;;;;1.00;1.00;;;18.70;67.50;;;;;;5087484;28;43853;-71
2023/01/02 04:19:12;;;;;;;0.90;0.90;;;18.70;67.60;;;;;;5088436;28;43512;-70
2023/01/02 04:21:40;;;;;;;0.90;0.90;;;18.60;67.80;;;;;;5088750;28;43477;-71
2023/01/02 04:24:10;;;;;;;0.90;0.90;;;18.60;67.90;;;;;;5089039;28;44143;-72
2023/01/02 04:26:41;;;;;;;0.80;0.80;;;18.60;68.00;;;;;;5084524;28;43593;-70
2023/01/02 04:29:09;;;;;;;0.70;0.70;;;18.50;67.90;;;;;;5065500;28;44875;-70
2023/01/02 04:31:38;;;;;;;0.80;0.80;;;18.50;68.00;;;;;;5088965;28;43439;-70
2023/01/02 04:34:06;;;;;;;1.33;1.00;;;18.40;68.30;;;;;;5089043;28;43445;-71
2023/01/02 04:36:39;;;;;;;1.10;1.10;;;18.40;68.60;;;;;;5069712;28;45942;-72
2023/01/02 04:39:06;;;;;;;0.90;0.90;;;18.40;68.60;;;;;;5084262;27;43469;-70
2023/01/02 04:41:34;;;;;;;0.80;0.80;;;18.40;68.60;;;;;;5069392;28;43352;-70
2023/01/02 04:44:03;;;;;;;0.60;0.60;;;18.30;68.40;;;;;;5086511;28;43335;-70
2023/01/02 04:46:31;;;;;;;0.80;0.80;;;18.30;68.60;;;;;;5087994;28;43845;-70
2023/01/02 04:48:58;;;;;;;0.80;0.80;;;18.30;68.90;;;;;;5069195;28;44851;-69
2023/01/02 04:51:27;;;;;;;0.77;0.77;;;18.30;69.00;;;;;;5088107;28;43429;-70
2023/01/02 04:53:56;;;;;;;0.83;0.83;;;18.40;68.90;;;;;;5089043;28;44023;-70
2023/01/02 04:56:25;;;;;;;0.80;0.80;;;18.50;68.60;;;;;;5085401;28;43600;-70
2023/01/02 04:58:53;;;;;;;0.80;0.80;;;18.50;68.30;;;;;;5088145;28;43421;-70
2023/01/02 05:01:21;;;;;;;0.90;0.90;;;18.50;68.30;;;;;;5087598;28;43379;-71
2023/01/02 05:03:50;;;;;;;0.70;0.70;;;18.50;68.50;;;;;;5069786;28;43977;-70
2023/01/02 05:06:18;;;;;;;0.90;0.90;;;18.50;68.50;;;;;;5069270;28;45295;-72
2023/01/02 05:08:46;;;;;;;0.90;0.90;;;18.40;68.30;;;;;;5087924;28;43462;-70
2023/01/02 05:11:17;;;;;;;0.90;0.90;;;18.40;68.30;;;;;;5085988;28;43431;-69
2023/01/02 05:13:45;;;;;;;0.83;0.60;;;18.40;68.40;;;;;;5088454;28;43419;-72
2023/01/02 05:16:13;;;;;;;0.97;0.97;;;18.30;69.10;;;;;;5068903;28;45471;-72
2023/01/02 05:18:41;;;;;;;0.77;0.77;;;18.30;68.80;;;;;;5086526;28;43854;-71
2023/01/02 05:23:47;;;;;;;0.70;0.70;;;18.30;68.80;;;;;;5087977;28;43499;-72
2023/01/02 05:23:59;;;;;;;1.00;1.00;;;18.30;68.80;;;;;;5081381;28;43447;-71
2023/01/02 05:26:29;;;;;;;0.63;0.63;;;18.30;68.80;;;;;;5087527;28;43664;-73
2023/01/02 05:28:57;;;;;;;0.70;0.70;;;18.30;68.80;;;;;;5087266;28;44087;-70
2023/01/02 05:31:25;;;;;;;0.90;0.90;;;18.20;69.00;;;;;;5087730;28;43458;-71
2023/01/02 05:33:54;;;;;;;0.90;0.90;;;18.30;69.20;;;;;;5088346;28;43498;-71
2023/01/02 05:36:22;;;;;;;1.10;0.70;;;18.30;68.90;;;;;;5082553;28;43616;-71
2023/01/02 05:38:51;;;;;;;0.90;0.90;;;18.40;68.50;;;;;;5086495;28;43509;-71
2023/01/02 05:41:19;;;;;;;0.80;0.80;;;18.50;68.40;;;;;;5068612;28;43426;-72
2023/01/02 05:43:48;;;;;;;1.13;0.93;;;18.50;68.30;;;;;;5087435;28;44099;-69
2023/01/02 05:46:17;;;;;;;0.70;0.70;;;18.40;68.50;;;;;;5087492;28;43832;-70
2023/01/02 05:48:45;;;;;;;0.80;0.80;;;18.40;68.50;;;;;;5086580;28;43527;-72
2023/01/02 05:51:14;;;;;;;0.97;0.97;;;18.40;68.40;;;;;;5086527;27;43422;-73
2023/01/02 05:53:42;;;;;;;0.90;0.90;;;18.40;68.40;;;;;;5083602;28;43378;-71
2023/01/02 05:56:11;;;;;;;0.77;0.77;;;18.40;68.50;;;;;;5087073;28;43729;-70
2023/01/02 05:58:40;;;;;;;0.80;0.80;;;18.30;68.50;;;;;;5086739;28;43498;-71
2023/01/02 06:01:10;;;;;;;0.80;0.80;;;18.30;68.90;;;;;;5083058;28;43765;-70
2023/01/02 06:03:38;;;;;;;0.90;0.90;;;18.30;68.90;;;;;;5086838;28;44040;-72
2023/01/02 06:06:07;;;;;;;0.90;0.90;;;18.30;68.90;;;;;;5066257;28;45654;-72
2023/01/02 06:08:35;;;;;;;0.90;0.90;;;18.30;68.80;;;;;;5084021;28;43396;-70
2023/01/02 06:11:04;;;;;;;0.90;0.90;;;18.20;68.80;;;;;;5084323;28;43415;-72
2023/01/02 06:13:32;;;;;;;0.90;0.90;;;18.20;69.00;;;;;;5087457;28;43453;-71
2023/01/02 06:16:01;;;;;;;1.00;1.00;;;18.20;69.10;;;;;;5068139;28;46216;-71
2023/01/02 06:18:30;;;;;;;0.90;0.90;;;18.30;69.10;;;;;;5084523;28;43486;-70
2023/01/02 06:20:59;;;;;;;0.70;0.70;;;18.30;68.90;;;;;;5081240;28;43347;-72
2023/01/02 06:23:27;;;;;;;0.90;0.90;;;18.30;68.90;;;;;;5087191;28;43461;-70
2023/01/02 06:25:55;;;;;;;0.90;0.90;;;18.20;68.90;;;;;;5086634;28;44358;-69
2023/01/02 06:28:23;;;;;;;0.83;0.80;;;18.20;69.20;;;;;;5086605;28;44196;-71
2023/01/02 06:30:52;;;;;;;0.77;0.77;;;18.20;69.20;;;;;;5086977;28;43442;-71
2023/01/02 06:33:20;;;;;;;0.93;0.93;;;18.40;69.00;;;;;;5068953;28;43603;-71
2023/01/02 06:35:49;;;;;;;0.83;0.83;;;18.50;68.60;;;;;;5081879;28;43809;-71
2023/01/02 06:38:17;;;;;;;0.77;0.77;;;18.50;68.30;;;;;;5084916;28;43499;-71
2023/01/02 06:40:52;;;;;;;0.80;0.80;;;18.50;68.10;;;;;;5086281;28;44153;-71
2023/01/02 06:43:20;;;;;;;0.70;0.70;;;18.50;68.30;;;;;;5067917;28;43605;-71
2023/01/02 06:45:48;;;;;;;0.90;0.90;;;18.50;68.40;;;;;;5086156;28;43624;-70
2023/01/02 06:48:16;;;;;;;0.80;0.80;;;18.50;68.30;;;;;;5084366;28;43976;-71
2023/01/02 06:50:44;;;;;;;0.80;0.80;;;18.50;68.30;;;;;;5084851;28;43408;-71
2023/01/02 06:53:14;;;;;;;0.80;0.80;;;18.40;68.30;;;;;;5086739;28;43422;-71
2023/01/02 06:55:50;;;;;;;0.90;0.90;;;18.40;68.50;;;;;;5086399;28;43920;-72
2023/01/02 06:58:18;;;;;;;0.93;0.80;;;18.30;68.80;;;;;;5086351;28;43461;-73
2023/01/02 07:00:46;;;;;;;1.00;1.00;;;18.30;68.70;;;;;;5086300;28;43502;-70
2023/01/02 07:03:14;;;;;;;0.83;0.83;;;18.30;68.70;;;;;;5082299;28;43458;-70
2023/01/02 07:05:42;;;;;;;0.90;0.90;;;18.30;68.60;;;;;;5086094;28;43916;-70
2023/01/02 07:08:10;;;;;;;0.80;0.80;;;18.30;68.80;;;;;;5082708;28;43977;-72
2023/01/02 07:10:39;;;;;;;0.90;0.90;;;18.20;68.80;;;;;;5086176;28;43406;-71
2023/01/02 07:13:07;;;;;;;1.10;1.10;;;18.20;69.10;;;;;;5067929;28;43570;-72
2023/01/02 07:15:35;;;;;;;0.97;0.97;;;18.30;69.00;;;;;;5085966;28;43924;-73
2023/01/02 07:18:03;;;;;;;0.97;0.97;;;18.40;68.70;;;;;;5083208;28;43454;-72
2023/01/02 07:20:31;;;;;;;0.90;0.90;;;18.40;68.60;;;;;;5085979;28;43502;-70
2023/01/02 07:22:59;;;;;;;0.80;0.80;;;18.40;68.40;;;;;;5086531;28;43423;-73
2023/01/02 07:25:27;;;;;;;0.90;0.90;;;18.40;68.80;;;;;;5085462;28;44581;-72
2023/01/02 07:27:56;;;;;;;1.13;1.00;;;18.40;68.70;;;;;;5085844;28;43715;-70
2023/01/02 07:30:24;;;;;;;0.90;0.90;;;18.40;68.70;;;;;;5084852;28;43490;-71
2023/01/02 07:32:53;;;;;;;0.90;0.90;;;18.40;68.60;;;;;;5086018;28;43940;-71
2023/01/02 07:35:21;;;;;;;1.10;1.10;;;18.30;68.50;;;;;;5078952;28;43937;-70
2023/01/02 07:37:49;;;;;;;1.27;1.27;;;18.30;68.80;;;;;;5084770;28;43444;-70
2023/01/02 07:40:18;;;;;;;1.17;1.17;;;18.30;69.10;;;;;;5081505;27;43824;-71
2023/01/02 07:42:46;;;;;;;1.20;1.20;;;18.30;68.90;;;;;;5081531;28;43595;-71
2023/01/02 07:45:17;;;;;;;1.10;1.10;;;18.30;68.80;;;;;;5084657;28;43852;-72
2023/01/02 07:47:44;;;;;;;1.17;1.17;;;18.30;68.80;;;;;;5085570;28;43783;-72
2023/01/02 07:50:12;;;;;;;1.20;1.20;;;18.30;68.80;;;;;;5067367;28;43443;-73
2023/01/02 07:52:42;;;;;;;2.23;1.30;;;18.20;68.90;;;;;;5067986;28;43938;-72
2023/01/02 07:55:10;;;;;;;2.10;1.40;;;18.20;69.20;;;;;;5085980;28;43895;-70
2023/01/02 07:57:38;;;;;;;1.20;1.20;;;18.30;69.00;;;;;;5085535;28;43429;-70
2023/01/02 08:00:07;;;;;;;1.30;1.13;;;18.40;68.60;;;;;;5084988;28;43482;-70
2023/01/02 08:02:40;;;;;;;1.47;1.47;;;18.50;68.30;;;;;;5077651;28;43420;-71
2023/01/02 08:05:08;;;;;;;1.60;1.50;;;18.50;68.20;;;;;;5085695;28;43909;-69
2023/01/02 08:07:36;;;;;;;1.40;1.40;;;18.50;68.40;;;;;;5085467;28;44076;-72
2023/01/02 08:10:11;;;;;;;1.30;1.30;;;18.50;68.40;;;;;;5085693;28;43481;-70
2023/01/02 08:12:39;;;;;;;1.83;1.30;;;18.50;68.40;;;;;;5085743;27;43427;-71
2023/01/02 08:15:08;;;;;;;1.30;1.30;;;18.40;68.30;;;;;;5070086;28;45726;-71
2023/01/02 08:17:36;;;;;;;1.23;1.23;;;18.40;68.40;;;;;;5086971;28;43795;-70
2023/01/02 08:20:07;;;;;;;1.20;1.20;;;18.30;68.70;;;;;;5070552;28;43534;-72
2023/01/02 08:22:35;;;;;;;2.80;1.30;;;18.30;68.90;;;;;;5070460;28;43503;-71
2023/01/02 08:25:03;;;;;;;1.70;1.60;;;18.30;68.50;;;;;;5089089;28;43669;-72
2023/01/02 08:27:31;;;;;;;1.27;1.27;;;18.30;68.10;;;;;;5085960;28;43388;-71
2023/01/02 08:29:59;;;;;;;1.33;1.30;;;18.30;68.30;;;;;;5086774;28;43374;-70
2023/01/02 08:32:27;;;;;;;2.07;1.47;;;18.30;68.50;;;;;;5089467;28;43930;-72
2023/01/02 08:34:55;;;;;;;1.87;1.40;;;18.30;68.70;;;;;;5087496;28;43923;-72
2023/01/02 08:37:24;;;;;;;1.67;1.57;;;18.20;69.00;;;;;;5088362;28;43490;-70
2023/01/02 08:39:52;;;;;;;1.40;1.40;;;18.30;68.90;;;;;;5070438;28;44053;-70
2023/01/02 08:42:20;;;;;;;2.70;1.90;;;18.40;68.60;;;;;;5085021;28;43827;-71
2023/01/02 08:44:48;;;;;;;1.93;1.80;;;18.50;68.40;;;;;;5088606;28;43940;-70
2023/01/02 08:47:16;;;;;;;2.13;1.50;;;18.50;68.30;;;;;;5088417;28;43996;-71
2023/01/02 08:49:43;;;;;;;1.90;1.70;;;18.40;68.20;;;;;;5068693;28;43474;-70
2023/01/02 08:52:11;;;;;;;2.40;1.53;;;18.40;68.50;;;;;;5088722;28;43427;-71
2023/01/02 08:54:41;;;;;;;1.40;1.30;;;18.40;68.30;;;;;;5088428;28;43869;-70
2023/01/02 08:57:09;;;;;;;1.63;1.53;;;18.40;68.30;;;;;;5084459;28;43380;-70
2023/01/02 08:59:37;;;;;;;1.63;1.53;;;18.40;68.30;;;;;;5088524;28;43480;-70
2023/01/02 09:02:05;;;;;;;2.20;1.97;;;18.30;68.40;;;;;;5088339;28;43560;-71
2023/01/02 09:04:33;;;;;;;1.47;1.30;;;18.30;68.70;;;;;;5088077;28;43818;-71
2023/01/02 09:07:01;;;;;;;1.63;1.53;;;18.30;68.80;;;;;;5088358;28;43411;-70
2023/01/02 09:09:29;;;;;;;1.63;1.50;;;18.40;68.50;;;;;;5088034;28;43397;-70
2023/01/02 09:11:59;;;;;;;1.90;1.80;;;18.50;68.30;;;;;;5088514;28;43458;-71
2023/01/02 09:14:27;;;;;;;1.70;1.60;;;18.50;68.80;;;;;;5087839;28;43869;-72
2023/01/02 09:16:56;;;;;;;1.77;1.67;;;18.50;68.00;;;;;;5086018;28;43858;-71
2023/01/02 09:19:24;;;;;;;1.70;1.60;;;18.50;68.40;;;;;;5088233;28;43527;-71
2023/01/02 09:21:52;;;;;;;1.60;1.50;;;18.50;68.40;;;;;;5070104;28;43599;-70
2023/01/02 09:24:20;;;;;;;1.20;1.20;;;18.50;68.30;;;;;;5086105;27;43710;-70
2023/01/02 09:26:48;;;;;;;1.47;1.37;;;18.40;68.20;;;;;;5086817;28;43960;-70
2023/01/02 09:29:18;;;;;;;1.40;1.40;;;18.40;68.40;;;;;;5087917;28;43474;-71
2023/01/02 09:31:46;;;;;;;1.40;1.40;;;18.40;68.60;;;;;;5087876;28;43505;-71
2023/01/02 09:34:14;;;;;;;1.60;1.50;;;18.30;68.80;;;;;;5087393;28;43612;-70
2023/01/02 09:36:42;;;;;;;1.47;1.40;;;18.30;68.70;;;;;;5087972;28;43392;-71
2023/01/02 09:39:11;;;;;;;1.83;1.73;;;18.40;68.70;;;;;;5087006;28;43419;-70
2023/01/02 09:41:39;;;;;;;2.87;1.70;;;18.30;68.60;;;;;;5087868;28;43520;-70
2023/01/02 09:44:11;;;;;;;1.57;1.47;;;18.30;68.60;;;;;;5087457;28;43579;-70
2023/01/02 09:46:44;;;;;;;1.47;1.47;;;18.30;68.80;;;;;;5085659;28;43471;-70
2023/01/02 09:49:13;;;;;;;1.50;1.50;;;18.30;69.10;;;;;;5087960;28;43976;-72
2023/01/02 09:51:41;;;;;;;1.50;1.40;;;18.30;68.80;;;;;;5087069;28;43484;-70
2023/01/02 09:54:14;;;;;;;1.70;1.60;;;18.30;68.70;;;;;;5086310;28;43858;-70
2023/01/02 09:56:42;;;;;;;1.90;1.37;;;18.30;68.70;;;;;;5087729;28;43407;-71
2023/01/02 09:59:12;;;;;;;1.50;1.40;;;18.30;68.80;;;;;;5087350;28;43554;-71
2023/01/02 10:01:51;;;;;;;1.60;1.50;;;18.30;69.10;;;;;;5083154;27;43775;-72
2023/01/02 10:04:22;;;;;;;2.03;1.47;;;18.30;69.10;;;;;;5082483;28;43620;-71
2023/01/02 10:06:53;;;;;;;1.70;1.60;;;18.40;68.80;;;;;;5086141;28;43649;-70
2023/01/02 10:09:24;;;;;;;1.53;1.50;;;18.50;68.40;;;;;;5087684;28;43345;-71
2023/01/02 10:11:56;;;;;;;1.53;1.43;;;18.60;68.30;;;;;;5084313;28;43396;-72
2023/01/02 10:14:28;;;;;;;1.40;1.40;;;18.50;68.10;;;;;;5068741;28;46058;-71
2023/01/02 10:17:09;;;;;;;1.20;1.20;;;18.50;68.40;;;;;;5085981;28;43917;-71
2023/01/02 10:19:41;;;;;;;1.53;1.50;;;18.50;68.40;;;;;;5087282;28;43462;-71
2023/01/02 10:22:11;;;;;;;1.20;1.20;;;18.50;68.30;;;;;;5087293;28;43531;-70
2023/01/02 10:24:42;;;;;;;1.43;1.33;;;18.50;68.40;;;;;;5087951;27;43919;-71
2023/01/02 10:27:13;;;;;;;1.53;1.43;;;18.40;68.50;;;;;;5086494;27;43447;-69
2023/01/02 10:29:43;;;;;;;1.50;1.50;;;18.40;68.80;;;;;;5083669;28;43402;-72
2023/01/02 10:32:14;;;;;;;1.50;1.43;;;18.40;68.80;;;;;;5086946;28;43412;-70
2023/01/02 10:34:43;;;;;;;1.37;1.37;;;18.40;68.70;;;;;;5080286;28;43943;-70
2023/01/02 10:37:13;;;;;;;1.30;1.30;;;18.40;68.70;;;;;;5086241;28;43593;-71
2023/01/02 10:39:41;;;;;;;1.30;1.30;;;18.40;69.50;;;;;;5086640;28;43691;-70
2023/01/02 10:42:10;;;;;;;1.67;1.57;;;18.30;68.70;;;;;;5087256;28;43461;-71
2023/01/02 10:44:38;;;;;;;1.60;1.50;;;18.30;69.10;;;;;;5067901;28;46105;-70
2023/01/02 10:47:14;;;;;;;1.23;1.23;;;18.40;69.00;;;;;;5065119;28;44350;-70
2023/01/02 10:49:42;;;;;;;1.30;1.27;;;18.50;68.70;;;;;;5086417;28;43872;-70
2023/01/02 10:52:13;;;;;;;1.30;1.30;;;18.60;68.40;;;;;;5087217;28;43589;-70
2023/01/02 10:54:51;;;;;;;1.33;1.33;;;18.60;68.20;;;;;;5086467;28;43881;-71
2023/01/02 10:57:33;;;;;;;1.53;1.53;;;18.60;68.20;;;;;;5086786;27;43446;-70
2023/01/02 11:00:02;;;;;;;1.20;1.20;;;18.50;68.30;;;;;;5080014;28;44012;-71
2023/01/02 11:02:37;;;;;;;1.57;1.50;;;18.50;68.20;;;;;;5081489;28;43422;-72
2023/01/02 11:05:07;;;;;;;1.30;1.30;;;18.50;68.20;;;;;;5086398;28;44326;-71
2023/01/02 11:07:36;;;;;;;1.53;1.53;;;18.50;68.30;;;;;;5067885;28;45287;-71
2023/01/02 11:10:04;;;;;;;1.40;1.40;;;18.40;68.40;;;;;;5086642;28;43426;-71
2023/01/02 11:12:32;;;;;;;1.57;1.57;;;18.40;68.80;;;;;;5086356;28;43391;-70
2023/01/02 11:15:10;;;;;;;1.53;1.40;;;18.40;68.80;;;;;;5085966;28;44342;-72
2023/01/02 11:17:42;;;;;;;1.30;1.30;;;18.40;68.70;;;;;;5082713;28;43442;-71
2023/01/02 11:20:24;;;;;;;1.17;1.17;;;18.40;68.70;;;;;;5086174;28;43577;-71
2023/01/02 11:22:53;;;;;;;1.50;1.40;;;18.40;68.70;;;;;;5086964;28;43463;-70
2023/01/02 11:25:23;;;;;;;2.67;1.50;;;18.30;68.80;;;;;;5085614;28;43956;-71
2023/01/02 11:27:51;;;;;;;1.87;1.70;;;18.30;68.70;;;;;;5085400;28;43501;-70
2023/01/02 11:30:28;;;;;;;1.97;1.60;;;18.40;68.80;;;;;;5062576;28;44005;-72
2023/01/02 11:33:20;;;;;;;1.50;1.50;;;18.40;68.80;;;;;;5067939;28;44202;-70
2023/01/02 11:35:50;;;;;;;1.60;1.50;;;18.30;68.70;;;;;;5078947;28;43778;-71
2023/01/02 11:38:19;;;;;;;1.97;1.53;;;18.30;68.80;;;;;;5086024;28;43413;-70
2023/01/02 11:40:59;;;;;;;1.70;1.60;;;18.30;69.10;;;;;;5085850;28;43503;-70
2023/01/02 11:43:48;;;;;;;1.60;1.50;;;18.40;69.10;;;;;;5084223;27;43632;-70
2023/01/02 11:46:28;;;;;;;1.60;1.50;;;18.50;69.30;;;;;;5059263;27;45633;-71
2023/01/02 11:49:00;;;;;;;1.77;1.67;;;18.60;68.30;;;;;;5086850;27;43699;-73
2023/01/02 11:51:28;;;;;;;1.53;1.40;;;18.60;68.20;;;;;;5086970;28;43398;-71
2023/01/02 11:53:56;;;;;;;3.00;1.70;;;18.50;68.30;;;;;;5090074;27;43941;-72
2023/01/02 11:56:26;;;;;;;1.40;1.40;;;18.50;68.30;;;;;;5089640;28;43762;-71
2023/01/02 11:58:57;;;;;;;1.70;1.70;;;18.50;68.20;;;;;;5069401;28;44966;-71
2023/01/02 12:01:28;;;;;;;1.67;1.57;;;18.50;68.30;;;;;;5090031;28;43587;-70
2023/01/02 12:03:57;;;;;;;1.63;1.57;;;18.50;68.30;;;;;;5089591;28;43374;-70
2023/01/02 12:06:32;;;;;;;1.50;1.50;;;18.40;68.40;;;;;;5089060;28;43611;-72
2023/01/02 12:09:04;;;;;;;1.60;1.60;;;18.40;68.70;;;;;;5089355;28;43474;-70
2023/01/02 12:11:42;;;;;;;1.73;1.63;;;18.40;68.80;;;;;;5089184;28;43722;-70
2023/01/02 12:14:13;;;;;;;2.07;1.97;;;18.40;68.70;;;;;;5084487;28;43443;-70
2023/01/02 12:16:46;;;;;;;2.03;1.93;;;18.40;68.70;;;;;;5087016;28;44975;-70
2023/01/02 12:19:32;;;;;;;1.90;1.80;;;18.40;68.70;;;;;;5088661;28;43443;-70
2023/01/02 12:22:07;;;;;;;1.60;1.60;;;18.40;68.80;;;;;;5070156;28;43417;-70
2023/01/02 12:24:46;;;;;;;1.80;1.70;;;18.30;69.10;;;;;;5089722;28;43491;-69
2023/01/02 12:27:16;;;;;;;1.70;1.60;;;18.40;69.00;;;;;;5082393;28;43861;-71
2023/01/02 12:29:51;;;;;;;2.10;2.00;;;18.50;68.60;;;;;;5088927;28;43924;-70
2023/01/02 12:32:47;;;;;;;1.90;1.83;;;18.60;68.40;;;;;;5089150;28;43357;-70
2023/01/02 12:35:23;;;;;;;1.90;1.80;;;18.50;68.30;;;;;;5047573;28;43490;-70
2023/01/02 12:37:53;;;;;;;2.07;1.97;;;18.50;68.60;;;;;;5087868;28;44515;-71
2023/01/02 12:40:37;;;;;;;2.10;2.00;;;18.50;68.60;;;;;;5069593;28;44426;-71
2023/01/02 12:43:17;;;;;;;1.83;1.73;;;18.50;68.50;;;;;;5086953;28;43431;-71
2023/01/02 12:45:47;;;;;;;1.50;1.50;;;18.40;68.30;;;;;;5086633;28;43495;-71
2023/01/02 12:48:24;;;;;;;1.63;1.63;;;18.40;68.50;;;;;;5088436;28;43663;-73
2023/01/02 12:51:13;;;;;;;1.70;1.70;;;18.40;68.70;;;;;;5070132;28;45062;-71
2023/01/02 12:53:52;;;;;;;1.67;1.67;;;18.40;69.00;;;;;;5085495;28;43494;-70
2023/01/02 12:56:44;;;;;;;1.83;1.73;;;18.40;68.80;;;;;;5086767;27;43545;-70
2023/01/02 12:59:25;;;;;;;1.63;1.60;;;18.40;68.70;;;;;;5084495;28;43702;-71
2023/01/02 13:01:57;;;;;;;1.63;1.60;;;18.40;68.80;;;;;;5083052;28;43427;-73
2023/01/02 13:04:26;;;;;;;1.97;1.87;;;18.30;68.80;;;;;;5069731;28;43550;-72